sensor_id;sensor_type;location;lat;lon;timestamp;P1;durP1;ratioP1;P2;durP2;ratioP2
6259;SDS011;3163;51.516;4.000;2023-09-18T00:00:25;7.57;;;5.45;;
6259;SDS011;3163;51.516;4.000;2023-09-18T00:02:51;6.07;;;4.53;;
6259;SDS011;3163;51.516;4.000;2023-09-18T00:05:16;4.97;;;3.65;;
6259;SDS011;3163;51.516;4.000;2023-09-18T00:07:42;4.30;;;3.70;;
6259;SDS011;3163;51.516;4.000;2023-09-18T00:10:11;6.85;;;5.28;;
6259;SDS011;3163;51.516;4.000;2023-09-18T00:12:38;6.18;;;4.03;;
6259;SDS011;3163;51.516;4.000;2023-09-18T00:15:05;7.20;;;5.43;;
6259;SDS011;3163;51.516;4.000;2023-09-18T00:17:33;4.45;;;3.60;;
6259;SDS011;3163;51.516;4.000;2023-09-18T00:19:59;5.18;;;4.45;;
6259;SDS011;3163;51.516;4.000;2023-09-18T00:22:25;4.20;;;3.58;;
6259;SDS011;3163;51.516;4.000;2023-09-18T00:24:51;4.07;;;3.60;;
6259;SDS011;3163;51.516;4.000;2023-09-18T00:27:16;5.60;;;3.65;;
6259;SDS011;3163;51.516;4.000;2023-09-18T00:29:42;2.95;;;2.75;;
6259;SDS011;3163;51.516;4.000;2023-09-18T00:32:08;5.82;;;4.40;;
6259;SDS011;3163;51.516;4.000;2023-09-18T00:34:33;3.90;;;3.50;;
6259;SDS011;3163;51.516;4.000;2023-09-18T00:36:59;5.43;;;4.07;;
6259;SDS011;3163;51.516;4.000;2023-09-18T00:39:25;2.95;;;2.75;;
6259;SDS011;3163;51.516;4.000;2023-09-18T00:41:51;3.05;;;2.85;;
6259;SDS011;3163;51.516;4.000;2023-09-18T00:44:21;3.40;;;3.10;;
6259;SDS011;3163;51.516;4.000;2023-09-18T00:46:48;3.47;;;3.05;;
6259;SDS011;3163;51.516;4.000;2023-09-18T00:49:15;3.03;;;2.63;;
6259;SDS011;3163;51.516;4.000;2023-09-18T00:51:41;4.18;;;3.15;;
6259;SDS011;3163;51.516;4.000;2023-09-18T00:54:08;3.10;;;2.90;;
6259;SDS011;3163;51.516;4.000;2023-09-18T00:56:35;3.40;;;3.10;;
6259;SDS011;3163;51.516;4.000;2023-09-18T00:59:00;2.92;;;2.72;;
6259;SDS011;3163;51.516;4.000;2023-09-18T01:01:28;4.13;;;3.40;;
6259;SDS011;3163;51.516;4.000;2023-09-18T01:03:54;5.32;;;4.70;;
6259;SDS011;3163;51.516;4.000;2023-09-18T01:06:24;3.42;;;3.13;;
6259;SDS011;3163;51.516;4.000;2023-09-18T01:08:52;2.95;;;2.40;;
6259;SDS011;3163;51.516;4.000;2023-09-18T01:11:20;3.95;;;3.40;;
6259;SDS011;3163;51.516;4.000;2023-09-18T01:14:00;3.42;;;2.65;;
6259;SDS011;3163;51.516;4.000;2023-09-18T01:19:35;3.30;;;2.75;;
6259;SDS011;3163;51.516;4.000;2023-09-18T01:22:10;3.08;;;2.88;;
6259;SDS011;3163;51.516;4.000;2023-09-18T01:24:38;3.47;;;3.10;;
6259;SDS011;3163;51.516;4.000;2023-09-18T01:27:05;3.40;;;2.85;;
6259;SDS011;3163;51.516;4.000;2023-09-18T01:29:33;3.20;;;3.00;;
6259;SDS011;3163;51.516;4.000;2023-09-18T01:31:59;2.80;;;2.50;;
6259;SDS011;3163;51.516;4.000;2023-09-18T01:34:34;3.55;;;2.45;;
6259;SDS011;3163;51.516;4.000;2023-09-18T01:37:05;3.22;;;2.78;;
6259;SDS011;3163;51.516;4.000;2023-09-18T01:39:33;4.03;;;3.35;;
6259;SDS011;3163;51.516;4.000;2023-09-18T01:42:04;2.95;;;2.75;;
6259;SDS011;3163;51.516;4.000;2023-09-18T01:44:31;3.20;;;2.90;;
6259;SDS011;3163;51.516;4.000;2023-09-18T01:46:59;2.88;;;2.65;;
6259;SDS011;3163;51.516;4.000;2023-09-18T01:49:34;3.90;;;3.45;;
6259;SDS011;3163;51.516;4.000;2023-09-18T01:52:01;3.13;;;2.83;;
6259;SDS011;3163;51.516;4.000;2023-09-18T01:54:28;2.75;;;2.55;;
6259;SDS011;3163;51.516;4.000;2023-09-18T01:56:55;3.03;;;2.83;;
6259;SDS011;3163;51.516;4.000;2023-09-18T01:59:20;3.65;;;3.20;;
6259;SDS011;3163;51.516;4.000;2023-09-18T02:01:47;7.85;;;4.15;;
6259;SDS011;3163;51.516;4.000;2023-09-18T02:04:13;4.40;;;3.55;;
6259;SDS011;3163;51.516;4.000;2023-09-18T02:06:39;3.28;;;2.85;;
6259;SDS011;3163;51.516;4.000;2023-09-18T02:09:05;5.78;;;4.30;;
6259;SDS011;3163;51.516;4.000;2023-09-18T02:11:34;3.92;;;3.53;;
6259;SDS011;3163;51.516;4.000;2023-09-18T02:14:03;4.32;;;3.65;;
6259;SDS011;3163;51.516;4.000;2023-09-18T02:16:32;2.67;;;2.47;;
6259;SDS011;3163;51.516;4.000;2023-09-18T02:18:58;2.90;;;2.70;;
6259;SDS011;3163;51.516;4.000;2023-09-18T02:21:24;5.50;;;4.47;;
6259;SDS011;3163;51.516;4.000;2023-09-18T02:23:50;4.30;;;3.08;;
6259;SDS011;3163;51.516;4.000;2023-09-18T02:26:17;3.70;;;3.03;;
6259;SDS011;3163;51.516;4.000;2023-09-18T02:28:43;2.67;;;2.47;;
6259;SDS011;3163;51.516;4.000;2023-09-18T02:31:09;3.30;;;2.90;;
6259;SDS011;3163;51.516;4.000;2023-09-18T02:33:34;3.08;;;2.80;;
6259;SDS011;3163;51.516;4.000;2023-09-18T02:36:00;2.65;;;2.45;;
6259;SDS011;3163;51.516;4.000;2023-09-18T02:38:27;2.63;;;2.42;;
6259;SDS011;3163;51.516;4.000;2023-09-18T02:40:53;2.80;;;2.60;;
6259;SDS011;3163;51.516;4.000;2023-09-18T02:43:19;2.35;;;2.25;;
6259;SDS011;3163;51.516;4.000;2023-09-18T02:45:46;3.58;;;2.97;;
6259;SDS011;3163;51.516;4.000;2023-09-18T02:48:11;2.60;;;2.40;;
6259;SDS011;3163;51.516;4.000;2023-09-18T02:50:37;3.58;;;2.70;;
6259;SDS011;3163;51.516;4.000;2023-09-18T02:53:05;2.58;;;2.38;;
6259;SDS011;3163;51.516;4.000;2023-09-18T02:55:31;6.80;;;4.00;;
6259;SDS011;3163;51.516;4.000;2023-09-18T02:57:56;3.05;;;2.80;;
6259;SDS011;3163;51.516;4.000;2023-09-18T03:00:22;3.55;;;3.30;;
6259;SDS011;3163;51.516;4.000;2023-09-18T03:02:48;3.75;;;3.38;;
6259;SDS011;3163;51.516;4.000;2023-09-18T03:05:13;2.50;;;2.30;;
6259;SDS011;3163;51.516;4.000;2023-09-18T03:07:39;3.03;;;2.72;;
6259;SDS011;3163;51.516;4.000;2023-09-18T03:10:05;2.90;;;2.63;;
6259;SDS011;3163;51.516;4.000;2023-09-18T03:12:31;3.08;;;2.75;;
6259;SDS011;3163;51.516;4.000;2023-09-18T03:14:56;3.03;;;2.55;;
6259;SDS011;3163;51.516;4.000;2023-09-18T03:17:22;3.25;;;2.90;;
6259;SDS011;3163;51.516;4.000;2023-09-18T03:19:48;3.42;;;3.13;;
6259;SDS011;3163;51.516;4.000;2023-09-18T03:22:14;2.80;;;2.50;;
6259;SDS011;3163;51.516;4.000;2023-09-18T03:24:40;3.58;;;3.08;;
6259;SDS011;3163;51.516;4.000;2023-09-18T03:27:05;2.42;;;2.22;;
6259;SDS011;3163;51.516;4.000;2023-09-18T03:29:31;2.75;;;2.25;;
6259;SDS011;3163;51.516;4.000;2023-09-18T03:31:57;2.97;;;2.53;;
6259;SDS011;3163;51.516;4.000;2023-09-18T03:34:24;4.55;;;3.10;;
6259;SDS011;3163;51.516;4.000;2023-09-18T03:36:53;3.13;;;2.85;;
6259;SDS011;3163;51.516;4.000;2023-09-18T03:39:19;3.13;;;2.60;;
6259;SDS011;3163;51.516;4.000;2023-09-18T03:41:45;2.80;;;2.33;;
6259;SDS011;3163;51.516;4.000;2023-09-18T03:44:10;2.38;;;2.20;;
6259;SDS011;3163;51.516;4.000;2023-09-18T03:46:36;2.85;;;2.65;;
6259;SDS011;3163;51.516;4.000;2023-09-18T03:49:02;2.72;;;2.42;;
6259;SDS011;3163;51.516;4.000;2023-09-18T03:51:28;2.38;;;2.17;;
6259;SDS011;3163;51.516;4.000;2023-09-18T03:53:54;2.25;;;2.15;;
6259;SDS011;3163;51.516;4.000;2023-09-18T03:56:20;3.10;;;2.90;;
6259;SDS011;3163;51.516;4.000;2023-09-18T03:58:47;2.72;;;2.53;;
6259;SDS011;3163;51.516;4.000;2023-09-18T04:01:15;2.90;;;2.70;;
6259;SDS011;3163;51.516;4.000;2023-09-18T04:03:41;2.40;;;2.20;;
6259;SDS011;3163;51.516;4.000;2023-09-18T04:06:07;2.65;;;2.38;;
6259;SDS011;3163;51.516;4.000;2023-09-18T04:08:32;2.35;;;2.05;;
6259;SDS011;3163;51.516;4.000;2023-09-18T04:10:58;4.22;;;2.38;;
6259;SDS011;3163;51.516;4.000;2023-09-18T04:13:24;5.78;;;2.40;;
6259;SDS011;3163;51.516;4.000;2023-09-18T04:15:50;2.30;;;2.10;;
6259;SDS011;3163;51.516;4.000;2023-09-18T04:18:16;2.30;;;2.03;;
6259;SDS011;3163;51.516;4.000;2023-09-18T04:20:42;2.05;;;1.95;;
6259;SDS011;3163;51.516;4.000;2023-09-18T04:23:24;2.70;;;2.40;;
6259;SDS011;3163;51.516;4.000;2023-09-18T04:25:51;4.25;;;2.63;;
6259;SDS011;3163;51.516;4.000;2023-09-18T04:28:19;3.13;;;2.60;;
6259;SDS011;3163;51.516;4.000;2023-09-18T04:30:45;3.13;;;2.63;;
6259;SDS011;3163;51.516;4.000;2023-09-18T04:33:12;2.22;;;1.95;;
6259;SDS011;3163;51.516;4.000;2023-09-18T04:35:39;2.15;;;1.98;;
6259;SDS011;3163;51.516;4.000;2023-09-18T04:38:08;2.25;;;2.15;;
6259;SDS011;3163;51.516;4.000;2023-09-18T04:40:35;2.30;;;2.20;;
6259;SDS011;3163;51.516;4.000;2023-09-18T04:43:01;2.00;;;1.90;;
6259;SDS011;3163;51.516;4.000;2023-09-18T04:45:29;2.25;;;2.00;;
6259;SDS011;3163;51.516;4.000;2023-09-18T04:47:55;2.25;;;1.98;;
6259;SDS011;3163;51.516;4.000;2023-09-18T04:50:21;2.78;;;1.92;;
6259;SDS011;3163;51.516;4.000;2023-09-18T04:52:47;2.42;;;2.22;;
6259;SDS011;3163;51.516;4.000;2023-09-18T04:55:15;2.72;;;2.53;;
6259;SDS011;3163;51.516;4.000;2023-09-18T04:57:41;3.05;;;1.88;;
6259;SDS011;3163;51.516;4.000;2023-09-18T05:00:07;2.17;;;2.05;;
6259;SDS011;3163;51.516;4.000;2023-09-18T05:02:34;1.98;;;1.88;;
6259;SDS011;3163;51.516;4.000;2023-09-18T05:05:00;2.30;;;2.15;;
6259;SDS011;3163;51.516;4.000;2023-09-18T05:07:26;2.13;;;2.03;;
6259;SDS011;3163;51.516;4.000;2023-09-18T05:09:52;2.00;;;1.90;;
6259;SDS011;3163;51.516;4.000;2023-09-18T05:12:17;3.03;;;2.03;;
6259;SDS011;3163;51.516;4.000;2023-09-18T05:14:43;2.22;;;2.03;;
6259;SDS011;3163;51.516;4.000;2023-09-18T05:17:14;2.35;;;1.83;;
6259;SDS011;3163;51.516;4.000;2023-09-18T05:19:41;2.25;;;1.92;;
6259;SDS011;3163;51.516;4.000;2023-09-18T05:22:10;2.70;;;2.50;;
6259;SDS011;3163;51.516;4.000;2023-09-18T05:24:39;2.80;;;1.83;;
6259;SDS011;3163;51.516;4.000;2023-09-18T05:27:05;2.10;;;1.90;;
6259;SDS011;3163;51.516;4.000;2023-09-18T05:29:32;1.90;;;1.80;;
6259;SDS011;3163;51.516;4.000;2023-09-18T05:31:57;2.20;;;2.00;;
6259;SDS011;3163;51.516;4.000;2023-09-18T05:34:23;2.22;;;2.03;;
6259;SDS011;3163;51.516;4.000;2023-09-18T05:36:49;1.70;;;1.60;;
6259;SDS011;3163;51.516;4.000;2023-09-18T05:39:15;1.83;;;1.70;;
6259;SDS011;3163;51.516;4.000;2023-09-18T05:41:41;1.70;;;1.60;;
6259;SDS011;3163;51.516;4.000;2023-09-18T05:44:07;1.95;;;1.80;;
6259;SDS011;3163;51.516;4.000;2023-09-18T05:46:36;2.00;;;1.60;;
6259;SDS011;3163;51.516;4.000;2023-09-18T05:49:04;1.70;;;1.60;;
6259;SDS011;3163;51.516;4.000;2023-09-18T05:51:30;2.00;;;1.80;;
6259;SDS011;3163;51.516;4.000;2023-09-18T05:53:57;1.65;;;1.55;;
6259;SDS011;3163;51.516;4.000;2023-09-18T05:56:23;2.13;;;1.92;;
6259;SDS011;3163;51.516;4.000;2023-09-18T05:58:49;1.65;;;1.55;;
6259;SDS011;3163;51.516;4.000;2023-09-18T06:01:14;1.92;;;1.70;;
6259;SDS011;3163;51.516;4.000;2023-09-18T06:03:40;1.73;;;1.63;;
6259;SDS011;3163;51.516;4.000;2023-09-18T06:06:06;1.50;;;1.40;;
6259;SDS011;3163;51.516;4.000;2023-09-18T06:08:32;3.00;;;1.63;;
6259;SDS011;3163;51.516;4.000;2023-09-18T06:10:58;1.55;;;1.45;;
6259;SDS011;3163;51.516;4.000;2023-09-18T06:13:24;1.55;;;1.48;;
6259;SDS011;3163;51.516;4.000;2023-09-18T06:15:51;1.15;;;1.15;;
6259;SDS011;3163;51.516;4.000;2023-09-18T06:18:19;1.10;;;1.10;;
6259;SDS011;3163;51.516;4.000;2023-09-18T06:20:46;1.92;;;1.60;;
6259;SDS011;3163;51.516;4.000;2023-09-18T06:23:12;1.40;;;1.30;;
6259;SDS011;3163;51.516;4.000;2023-09-18T06:25:37;1.42;;;1.33;;
6259;SDS011;3163;51.516;4.000;2023-09-18T06:28:04;1.27;;;1.08;;
6259;SDS011;3163;51.516;4.000;2023-09-18T06:30:30;1.45;;;1.05;;
6259;SDS011;3163;51.516;4.000;2023-09-18T06:32:56;1.15;;;1.10;;
6259;SDS011;3163;51.516;4.000;2023-09-18T06:35:22;1.17;;;1.17;;
6259;SDS011;3163;51.516;4.000;2023-09-18T06:37:47;1.70;;;1.60;;
6259;SDS011;3163;51.516;4.000;2023-09-18T06:40:13;1.77;;;1.33;;
6259;SDS011;3163;51.516;4.000;2023-09-18T06:42:39;1.38;;;1.25;;
6259;SDS011;3163;51.516;4.000;2023-09-18T06:45:05;1.15;;;1.02;;
6259;SDS011;3163;51.516;4.000;2023-09-18T06:47:32;1.70;;;1.17;;
6259;SDS011;3163;51.516;4.000;2023-09-18T06:49:58;3.63;;;1.30;;
6259;SDS011;3163;51.516;4.000;2023-09-18T06:52:25;1.27;;;1.17;;
6259;SDS011;3163;51.516;4.000;2023-09-18T06:54:52;4.22;;;1.90;;
6259;SDS011;3163;51.516;4.000;2023-09-18T06:57:18;1.13;;;0.88;;
6259;SDS011;3163;51.516;4.000;2023-09-18T06:59:46;1.70;;;1.30;;
6259;SDS011;3163;51.516;4.000;2023-09-18T07:02:12;1.17;;;1.08;;
6259;SDS011;3163;51.516;4.000;2023-09-18T07:04:40;1.90;;;1.00;;
6259;SDS011;3163;51.516;4.000;2023-09-18T07:07:10;1.63;;;0.93;;
6259;SDS011;3163;51.516;4.000;2023-09-18T07:09:37;1.33;;;1.20;;
6259;SDS011;3163;51.516;4.000;2023-09-18T07:12:03;1.40;;;1.30;;
6259;SDS011;3163;51.516;4.000;2023-09-18T07:14:29;1.20;;;1.15;;
6259;SDS011;3163;51.516;4.000;2023-09-18T07:16:56;1.05;;;1.00;;
6259;SDS011;3163;51.516;4.000;2023-09-18T07:19:21;2.03;;;1.02;;
6259;SDS011;3163;51.516;4.000;2023-09-18T07:21:47;1.05;;;0.98;;
6259;SDS011;3163;51.516;4.000;2023-09-18T07:24:12;1.15;;;0.90;;
6259;SDS011;3163;51.516;4.000;2023-09-18T07:26:42;1.00;;;0.90;;
6259;SDS011;3163;51.516;4.000;2023-09-18T07:29:12;0.98;;;0.98;;
6259;SDS011;3163;51.516;4.000;2023-09-18T07:31:41;1.10;;;1.10;;
6259;SDS011;3163;51.516;4.000;2023-09-18T07:34:08;0.75;;;0.75;;
6259;SDS011;3163;51.516;4.000;2023-09-18T07:36:34;1.52;;;1.08;;
6259;SDS011;3163;51.516;4.000;2023-09-18T07:39:00;1.25;;;1.00;;
6259;SDS011;3163;51.516;4.000;2023-09-18T07:41:26;1.70;;;1.30;;
6259;SDS011;3163;51.516;4.000;2023-09-18T07:43:51;0.88;;;0.70;;
6259;SDS011;3163;51.516;4.000;2023-09-18T07:46:17;2.40;;;1.05;;
6259;SDS011;3163;51.516;4.000;2023-09-18T07:48:43;0.88;;;0.77;;
6259;SDS011;3163;51.516;4.000;2023-09-18T07:51:12;1.27;;;1.10;;
6259;SDS011;3163;51.516;4.000;2023-09-18T07:53:39;1.05;;;0.80;;
6259;SDS011;3163;51.516;4.000;2023-09-18T07:56:04;0.65;;;0.65;;
6259;SDS011;3163;51.516;4.000;2023-09-18T07:58:30;1.20;;;0.90;;
6259;SDS011;3163;51.516;4.000;2023-09-18T08:00:58;1.75;;;0.82;;
6259;SDS011;3163;51.516;4.000;2023-09-18T08:03:24;1.83;;;1.05;;
6259;SDS011;3163;51.516;4.000;2023-09-18T08:05:51;5.03;;;1.00;;
6259;SDS011;3163;51.516;4.000;2023-09-18T08:08:18;0.85;;;0.80;;
6259;SDS011;3163;51.516;4.000;2023-09-18T08:10:48;0.93;;;0.70;;
6259;SDS011;3163;51.516;4.000;2023-09-18T08:13:15;3.03;;;1.00;;
6259;SDS011;3163;51.516;4.000;2023-09-18T08:15:41;0.73;;;0.70;;
6259;SDS011;3163;51.516;4.000;2023-09-18T08:18:06;0.77;;;0.77;;
6259;SDS011;3163;51.516;4.000;2023-09-18T08:20:32;0.95;;;0.70;;
6259;SDS011;3163;51.516;4.000;2023-09-18T08:22:58;1.02;;;0.85;;
6259;SDS011;3163;51.516;4.000;2023-09-18T08:25:30;1.20;;;0.82;;
6259;SDS011;3163;51.516;4.000;2023-09-18T08:27:56;1.95;;;0.82;;
6259;SDS011;3163;51.516;4.000;2023-09-18T08:30:22;2.08;;;1.00;;
6259;SDS011;3163;51.516;4.000;2023-09-18T08:32:47;2.67;;;1.10;;
6259;SDS011;3163;51.516;4.000;2023-09-18T08:35:13;1.88;;;1.40;;
6259;SDS011;3163;51.516;4.000;2023-09-18T08:37:42;3.67;;;1.30;;
6259;SDS011;3163;51.516;4.000;2023-09-18T08:40:12;4.43;;;1.10;;
6259;SDS011;3163;51.516;4.000;2023-09-18T08:42:40;2.10;;;1.35;;
6259;SDS011;3163;51.516;4.000;2023-09-18T08:45:10;1.35;;;1.23;;
6259;SDS011;3163;51.516;4.000;2023-09-18T08:47:40;1.83;;;1.20;;
6259;SDS011;3163;51.516;4.000;2023-09-18T08:50:08;1.45;;;1.33;;
6259;SDS011;3163;51.516;4.000;2023-09-18T08:52:37;1.55;;;1.38;;
6259;SDS011;3163;51.516;4.000;2023-09-18T08:55:03;3.00;;;1.43;;
6259;SDS011;3163;51.516;4.000;2023-09-18T08:57:29;1.17;;;1.08;;
6259;SDS011;3163;51.516;4.000;2023-09-18T08:59:56;1.60;;;1.30;;
6259;SDS011;3163;51.516;4.000;2023-09-18T09:02:23;1.38;;;1.20;;
6259;SDS011;3163;51.516;4.000;2023-09-18T09:04:49;2.88;;;1.35;;
6259;SDS011;3163;51.516;4.000;2023-09-18T09:07:15;2.58;;;1.35;;
6259;SDS011;3163;51.516;4.000;2023-09-18T09:09:40;2.63;;;1.20;;
6259;SDS011;3163;51.516;4.000;2023-09-18T09:12:07;1.92;;;1.23;;
6259;SDS011;3163;51.516;4.000;2023-09-18T09:14:32;2.13;;;0.85;;
6259;SDS011;3163;51.516;4.000;2023-09-18T09:16:58;0.93;;;0.93;;
6259;SDS011;3163;51.516;4.000;2023-09-18T09:19:42;1.30;;;1.20;;
6259;SDS011;3163;51.516;4.000;2023-09-18T09:22:08;1.60;;;1.23;;
6259;SDS011;3163;51.516;4.000;2023-09-18T09:24:38;1.95;;;0.93;;
6259;SDS011;3163;51.516;4.000;2023-09-18T09:27:08;1.65;;;1.40;;
6259;SDS011;3163;51.516;4.000;2023-09-18T09:29:37;1.95;;;1.30;;
6259;SDS011;3163;51.516;4.000;2023-09-18T09:34:42;1.80;;;1.40;;
6259;SDS011;3163;51.516;4.000;2023-09-18T09:37:08;1.63;;;1.13;;
6259;SDS011;3163;51.516;4.000;2023-09-18T09:39:34;2.25;;;1.10;;
6259;SDS011;3163;51.516;4.000;2023-09-18T09:42:02;1.35;;;1.20;;
6259;SDS011;3163;51.516;4.000;2023-09-18T09:44:32;1.20;;;1.17;;
6259;SDS011;3163;51.516;4.000;2023-09-18T09:46:58;1.20;;;1.20;;
6259;SDS011;3163;51.516;4.000;2023-09-18T09:49:24;1.33;;;1.23;;
6259;SDS011;3163;51.516;4.000;2023-09-18T09:51:54;2.17;;;1.38;;
6259;SDS011;3163;51.516;4.000;2023-09-18T09:54:31;1.50;;;1.40;;
6259;SDS011;3163;51.516;4.000;2023-09-18T09:57:01;2.55;;;1.40;;
6259;SDS011;3163;51.516;4.000;2023-09-18T09:59:28;1.25;;;1.20;;
6259;SDS011;3163;51.516;4.000;2023-09-18T10:01:54;2.00;;;1.27;;
6259;SDS011;3163;51.516;4.000;2023-09-18T10:04:21;2.65;;;1.30;;
6259;SDS011;3163;51.516;4.000;2023-09-18T10:06:52;1.20;;;1.10;;
6259;SDS011;3163;51.516;4.000;2023-09-18T10:09:23;1.30;;;1.20;;
6259;SDS011;3163;51.516;4.000;2023-09-18T10:11:54;1.40;;;1.35;;
6259;SDS011;3163;51.516;4.000;2023-09-18T10:14:31;1.35;;;1.33;;
6259;SDS011;3163;51.516;4.000;2023-09-18T10:17:02;1.35;;;1.35;;
6259;SDS011;3163;51.516;4.000;2023-09-18T10:24:59;2.08;;;1.45;;
6259;SDS011;3163;51.516;4.000;2023-09-18T10:27:38;1.38;;;1.27;;
6259;SDS011;3163;51.516;4.000;2023-09-18T10:30:06;1.92;;;1.42;;
6259;SDS011;3163;51.516;4.000;2023-09-18T10:32:36;1.50;;;1.40;;
6259;SDS011;3163;51.516;4.000;2023-09-18T10:35:04;2.05;;;1.52;;
6259;SDS011;3163;51.516;4.000;2023-09-18T10:37:32;2.30;;;1.52;;
6259;SDS011;3163;51.516;4.000;2023-09-18T10:40:00;1.30;;;1.20;;
6259;SDS011;3163;51.516;4.000;2023-09-18T10:42:25;1.05;;;1.05;;
6259;SDS011;3163;51.516;4.000;2023-09-18T10:44:52;1.85;;;1.50;;
6259;SDS011;3163;51.516;4.000;2023-09-18T10:47:18;4.60;;;1.60;;
6259;SDS011;3163;51.516;4.000;2023-09-18T10:49:45;2.67;;;1.42;;
6259;SDS011;3163;51.516;4.000;2023-09-18T10:52:11;1.27;;;1.27;;
6259;SDS011;3163;51.516;4.000;2023-09-18T10:54:38;2.30;;;1.80;;
6259;SDS011;3163;51.516;4.000;2023-09-18T10:57:05;3.53;;;1.33;;
6259;SDS011;3163;51.516;4.000;2023-09-18T10:59:31;3.72;;;1.45;;
6259;SDS011;3163;51.516;4.000;2023-09-18T11:02:02;1.27;;;1.20;;
6259;SDS011;3163;51.516;4.000;2023-09-18T11:04:30;4.55;;;1.23;;
6259;SDS011;3163;51.516;4.000;2023-09-18T11:09:30;1.50;;;1.40;;
6259;SDS011;3163;51.516;4.000;2023-09-18T11:12:05;1.13;;;1.10;;
6259;SDS011;3163;51.516;4.000;2023-09-18T11:20:02;1.65;;;1.50;;
6259;SDS011;3163;51.516;4.000;2023-09-18T11:23:09;1.33;;;1.20;;
6259;SDS011;3163;51.516;4.000;2023-09-18T11:25:36;1.27;;;1.20;;
6259;SDS011;3163;51.516;4.000;2023-09-18T11:28:03;1.30;;;1.20;;
6259;SDS011;3163;51.516;4.000;2023-09-18T11:30:32;2.13;;;1.48;;
6259;SDS011;3163;51.516;4.000;2023-09-18T11:33:00;1.02;;;1.02;;
6259;SDS011;3163;51.516;4.000;2023-09-18T11:35:31;1.40;;;1.30;;
6259;SDS011;3163;51.516;4.000;2023-09-18T11:38:03;1.05;;;0.98;;
6259;SDS011;3163;51.516;4.000;2023-09-18T11:40:34;1.42;;;1.20;;
6259;SDS011;3163;51.516;4.000;2023-09-18T11:45:54;1.52;;;1.30;;
6259;SDS011;3163;51.516;4.000;2023-09-18T11:48:29;1.40;;;1.30;;
6259;SDS011;3163;51.516;4.000;2023-09-18T11:50:59;2.45;;;1.13;;
6259;SDS011;3163;51.516;4.000;2023-09-18T11:53:28;1.60;;;1.20;;
6259;SDS011;3163;51.516;4.000;2023-09-18T11:55:54;1.40;;;1.30;;
6259;SDS011;3163;51.516;4.000;2023-09-18T11:58:20;2.75;;;1.35;;
6259;SDS011;3163;51.516;4.000;2023-09-18T12:00:48;1.08;;;1.00;;
6259;SDS011;3163;51.516;4.000;2023-09-18T12:05:54;1.75;;;1.40;;
6259;SDS011;3163;51.516;4.000;2023-09-18T12:08:22;1.40;;;1.33;;
6259;SDS011;3163;51.516;4.000;2023-09-18T12:10:51;1.30;;;1.20;;
6259;SDS011;3163;51.516;4.000;2023-09-18T12:13:18;1.55;;;1.10;;
6259;SDS011;3163;51.516;4.000;2023-09-18T12:15:44;3.28;;;1.30;;
6259;SDS011;3163;51.516;4.000;2023-09-18T12:18:10;1.30;;;1.20;;
6259;SDS011;3163;51.516;4.000;2023-09-18T12:20:46;3.00;;;1.48;;
6259;SDS011;3163;51.516;4.000;2023-09-18T12:23:13;2.28;;;1.40;;
6259;SDS011;3163;51.516;4.000;2023-09-18T12:25:40;1.10;;;1.10;;
6259;SDS011;3163;51.516;4.000;2023-09-18T12:28:06;4.55;;;1.48;;
6259;SDS011;3163;51.516;4.000;2023-09-18T12:30:32;2.45;;;1.30;;
6259;SDS011;3163;51.516;4.000;2023-09-18T12:32:58;2.88;;;1.23;;
6259;SDS011;3163;51.516;4.000;2023-09-18T12:35:29;1.20;;;1.05;;
6259;SDS011;3163;51.516;4.000;2023-09-18T12:37:55;1.30;;;1.20;;
6259;SDS011;3163;51.516;4.000;2023-09-18T12:42:53;1.80;;;1.30;;
6259;SDS011;3163;51.516;4.000;2023-09-18T12:45:20;2.95;;;1.00;;
6259;SDS011;3163;51.516;4.000;2023-09-18T12:47:47;1.00;;;1.00;;
6259;SDS011;3163;51.516;4.000;2023-09-18T12:50:13;2.30;;;1.20;;
6259;SDS011;3163;51.516;4.000;2023-09-18T12:52:40;1.08;;;1.00;;
6259;SDS011;3163;51.516;4.000;2023-09-18T12:55:06;1.35;;;1.20;;
6259;SDS011;3163;51.516;4.000;2023-09-18T12:57:35;1.42;;;1.00;;
6259;SDS011;3163;51.516;4.000;2023-09-18T13:00:07;2.15;;;1.42;;
6259;SDS011;3163;51.516;4.000;2023-09-18T13:02:37;1.42;;;1.33;;
6259;SDS011;3163;51.516;4.000;2023-09-18T13:05:04;2.53;;;1.42;;
6259;SDS011;3163;51.516;4.000;2023-09-18T13:07:30;1.27;;;1.17;;
6259;SDS011;3163;51.516;4.000;2023-09-18T13:10:02;1.33;;;1.20;;
6259;SDS011;3163;51.516;4.000;2023-09-18T13:12:42;0.90;;;0.90;;
6259;SDS011;3163;51.516;4.000;2023-09-18T13:15:11;1.92;;;1.30;;
6259;SDS011;3163;51.516;4.000;2023-09-18T13:17:43;1.20;;;1.10;;
6259;SDS011;3163;51.516;4.000;2023-09-18T13:20:14;1.58;;;1.45;;
6259;SDS011;3163;51.516;4.000;2023-09-18T13:22:41;1.92;;;1.15;;
6259;SDS011;3163;51.516;4.000;2023-09-18T13:25:08;2.38;;;1.20;;
6259;SDS011;3163;51.516;4.000;2023-09-18T13:27:36;0.95;;;0.95;;
6259;SDS011;3163;51.516;4.000;2023-09-18T13:30:02;1.42;;;1.33;;
6259;SDS011;3163;51.516;4.000;2023-09-18T13:32:41;1.05;;;1.00;;
6259;SDS011;3163;51.516;4.000;2023-09-18T13:35:06;2.00;;;0.90;;
6259;SDS011;3163;51.516;4.000;2023-09-18T13:37:33;1.10;;;1.00;;
6259;SDS011;3163;51.516;4.000;2023-09-18T13:39:59;0.90;;;0.88;;
6259;SDS011;3163;51.516;4.000;2023-09-18T13:42:31;5.32;;;1.10;;
6259;SDS011;3163;51.516;4.000;2023-09-18T13:45:00;1.03;;;1.03;;
6259;SDS011;3163;51.516;4.000;2023-09-18T13:47:27;2.05;;;1.10;;
6259;SDS011;3163;51.516;4.000;2023-09-18T13:49:53;3.15;;;1.02;;
6259;SDS011;3163;51.516;4.000;2023-09-18T13:52:22;5.53;;;1.02;;
6259;SDS011;3163;51.516;4.000;2023-09-18T13:54:48;1.77;;;0.90;;
6259;SDS011;3163;51.516;4.000;2023-09-18T13:57:16;0.80;;;0.80;;
6259;SDS011;3163;51.516;4.000;2023-09-18T13:59:43;2.55;;;1.20;;
6259;SDS011;3163;51.516;4.000;2023-09-18T14:02:10;2.65;;;0.98;;
6259;SDS011;3163;51.516;4.000;2023-09-18T14:04:36;3.83;;;0.93;;
6259;SDS011;3163;51.516;4.000;2023-09-18T14:07:02;1.38;;;0.82;;
6259;SDS011;3163;51.516;4.000;2023-09-18T14:09:28;2.28;;;0.95;;
6259;SDS011;3163;51.516;4.000;2023-09-18T14:11:54;1.77;;;1.10;;
6259;SDS011;3163;51.516;4.000;2023-09-18T14:14:21;1.65;;;0.80;;
6259;SDS011;3163;51.516;4.000;2023-09-18T14:16:47;2.67;;;1.05;;
6259;SDS011;3163;51.516;4.000;2023-09-18T14:19:13;2.15;;;0.82;;
6259;SDS011;3163;51.516;4.000;2023-09-18T14:21:38;0.95;;;0.80;;
6259;SDS011;3163;51.516;4.000;2023-09-18T14:24:05;2.55;;;0.98;;
6259;SDS011;3163;51.516;4.000;2023-09-18T14:26:31;1.92;;;0.63;;
6259;SDS011;3163;51.516;4.000;2023-09-18T14:28:58;2.80;;;1.00;;
6259;SDS011;3163;51.516;4.000;2023-09-18T14:31:24;0.70;;;0.70;;
6259;SDS011;3163;51.516;4.000;2023-09-18T14:33:50;1.98;;;0.80;;
6259;SDS011;3163;51.516;4.000;2023-09-18T14:36:15;2.20;;;0.85;;
6259;SDS011;3163;51.516;4.000;2023-09-18T14:38:41;0.88;;;0.80;;
6259;SDS011;3163;51.516;4.000;2023-09-18T14:41:06;2.35;;;0.70;;
6259;SDS011;3163;51.516;4.000;2023-09-18T14:43:32;2.33;;;1.10;;
6259;SDS011;3163;51.516;4.000;2023-09-18T14:45:58;1.40;;;0.70;;
6259;SDS011;3163;51.516;4.000;2023-09-18T14:48:24;1.25;;;0.88;;
6259;SDS011;3163;51.516;4.000;2023-09-18T14:50:53;3.20;;;0.90;;
6259;SDS011;3163;51.516;4.000;2023-09-18T14:53:19;1.35;;;0.80;;
6259;SDS011;3163;51.516;4.000;2023-09-18T14:55:45;1.60;;;0.95;;
6259;SDS011;3163;51.516;4.000;2023-09-18T14:58:10;2.60;;;1.10;;
6259;SDS011;3163;51.516;4.000;2023-09-18T15:00:36;0.73;;;0.73;;
6259;SDS011;3163;51.516;4.000;2023-09-18T15:03:02;2.38;;;0.55;;
6259;SDS011;3163;51.516;4.000;2023-09-18T15:05:28;5.07;;;0.82;;
6259;SDS011;3163;51.516;4.000;2023-09-18T15:07:53;0.70;;;0.70;;
6259;SDS011;3163;51.516;4.000;2023-09-18T15:10:19;2.50;;;0.70;;
6259;SDS011;3163;51.516;4.000;2023-09-18T15:12:45;1.20;;;0.80;;
6259;SDS011;3163;51.516;4.000;2023-09-18T15:15:10;0.85;;;0.60;;
6259;SDS011;3163;51.516;4.000;2023-09-18T15:17:36;1.13;;;0.88;;
6259;SDS011;3163;51.516;4.000;2023-09-18T15:20:05;1.30;;;0.60;;
6259;SDS011;3163;51.516;4.000;2023-09-18T15:22:31;2.70;;;1.10;;
6259;SDS011;3163;51.516;4.000;2023-09-18T15:24:57;0.60;;;0.60;;
6259;SDS011;3163;51.516;4.000;2023-09-18T15:27:22;0.98;;;0.70;;
6259;SDS011;3163;51.516;4.000;2023-09-18T15:29:48;0.68;;;0.68;;
6259;SDS011;3163;51.516;4.000;2023-09-18T15:32:14;1.80;;;0.80;;
6259;SDS011;3163;51.516;4.000;2023-09-18T15:34:41;1.98;;;1.05;;
6259;SDS011;3163;51.516;4.000;2023-09-18T15:37:07;0.68;;;0.68;;
6259;SDS011;3163;51.516;4.000;2023-09-18T15:39:33;3.40;;;0.60;;
6259;SDS011;3163;51.516;4.000;2023-09-18T15:42:00;2.33;;;0.90;;